Time;durP1;ratioP1;P1;durP2;ratioP2;P2;SDS_P1;SDS_P2;PMS_P1;PMS_P2;Temp;Humidity;BMP_temperature;BMP_pressure;BME280_temperature;BME280_humidity;BME280_pressure;Samples;Min_cycle;Max_cycle;Signal;HPM_P1;HPM_P2
2023/12/03 00:00:17;;;;;;;10.30;8.13;;;;;;;-2.64;67.42;99026.44;4951691;27;103410;-75
2023/12/03 00:02:45;;;;;;;9.65;6.97;;;;;;;-2.49;67.48;99027.41;4956915;28;102623;-74
2023/12/03 00:05:14;;;;;;;9.55;7.00;;;;;;;-2.53;66.95;99033.66;4955168;27;104116;-75
2023/12/03 00:07:42;;;;;;;11.88;6.45;;;;;;;-2.69;67.07;99036.19;4954494;28;102611;-75
2023/12/03 00:10:11;;;;;;;11.05;6.35;;;;;;;-2.96;67.39;99036.63;4957144;28;102591;-74
2023/12/03 00:12:40;;;;;;;10.45;6.13;;;;;;;-2.96;66.93;99033.19;4953180;27;103907;-74
2023/12/03 00:15:09;;;;;;;10.77;6.50;;;;;;;-2.81;68.36;99039.41;4950130;28;103236;-75
2023/12/03 00:17:37;;;;;;;12.73;6.72;;;;;;;-2.99;67.92;99029.00;4954790;27;103044;-74
2023/12/03 00:20:06;;;;;;;11.23;7.80;;;;;;;-2.76;67.77;99034.81;4958567;28;103629;-76
2023/12/03 00:22:35;;;;;;;8.82;6.00;;;;;;;-2.69;67.77;99036.19;4952036;28;103500;-75
2023/12/03 00:25:03;;;;;;;10.00;6.50;;;;;;;-2.69;67.50;99031.81;4938495;28;103345;-75
2023/12/03 00:27:32;;;;;;;11.20;6.50;;;;;;;-2.68;67.55;99027.50;4953893;27;102627;-76
2023/12/03 00:30:01;;;;;;;9.13;5.70;;;;;;;-2.64;67.65;99033.38;4954786;28;102625;-77
2023/12/03 00:32:29;;;;;;;11.38;8.85;;;;;;;-2.50;67.89;99029.16;4955243;28;103924;-77
2023/12/03 00:34:57;;;;;;;9.43;6.28;;;;;;;-2.44;67.46;99032.38;4958528;27;103217;-77
2023/12/03 00:37:25;;;;;;;11.27;7.93;;;;;;;-2.58;66.96;99041.69;4941889;27;103049;-77
2023/12/03 00:39:52;;;;;;;10.70;5.88;;;;;;;-2.62;67.13;99036.72;4959296;27;104802;-77
2023/12/03 00:42:20;;;;;;;10.52;6.05;;;;;;;-2.56;68.17;99039.00;4955808;27;103333;-77
2023/12/03 00:44:50;;;;;;;10.52;7.70;;;;;;;-2.46;67.86;99042.81;4945685;28;103069;-77
2023/12/03 00:47:18;;;;;;;10.52;8.13;;;;;;;-2.54;68.08;99050.13;4958514;27;102611;-77
2023/12/03 00:49:46;;;;;;;10.43;7.78;;;;;;;-2.53;68.49;99047.47;4955987;28;104242;-77
2023/12/03 00:52:14;;;;;;;10.77;6.50;;;;;;;-2.46;68.21;99054.94;4953494;28;103342;-77
2023/12/03 00:54:42;;;;;;;10.75;7.40;;;;;;;-2.36;68.40;99046.63;4951133;27;103368;-77
2023/12/03 00:57:10;;;;;;;10.20;7.10;;;;;;;-2.45;68.27;99051.44;4942220;28;102617;-77
2023/12/03 00:59:38;;;;;;;11.27;6.28;;;;;;;-2.56;68.76;99058.00;4954962;27;102889;-77
2023/12/03 01:02:08;;;;;;;9.00;6.55;;;;;;;-2.57;68.14;99063.25;4943822;27;103235;-78
2023/12/03 01:04:36;;;;;;;11.93;8.55;;;;;;;-2.72;67.67;99059.69;4956428;27;103416;-77
2023/12/03 01:07:04;;;;;;;13.95;9.60;;;;;;;-2.62;68.64;99060.91;4956299;28;102756;-77
2023/12/03 01:09:32;;;;;;;12.45;10.00;;;;;;;-2.61;68.92;99054.78;4957429;28;103593;-78
2023/12/03 01:12:01;;;;;;;13.00;9.27;;;;;;;-2.52;68.70;99063.88;5002025;27;104542;-77
2023/12/03 01:14:30;;;;;;;10.43;6.60;;;;;;;-2.65;67.90;99071.41;4940473;28;103225;-77
2023/12/03 01:16:58;;;;;;;13.05;7.28;;;;;;;-2.73;69.06;99068.38;4956067;28;102602;-77
2023/12/03 01:19:27;;;;;;;11.27;7.10;;;;;;;-2.79;68.95;99072.09;4958469;28;102586;-77
2023/12/03 01:21:55;;;;;;;12.52;8.50;;;;;;;-2.69;68.35;99075.91;4960483;27;103948;-77
2023/12/03 01:24:23;;;;;;;11.32;7.57;;;;;;;-2.67;68.80;99086.22;4959648;28;103158;-76
2023/12/03 01:26:52;;;;;;;12.77;7.68;;;;;;;-2.62;69.23;99092.03;4959960;27;102586;-77
2023/12/03 01:29:20;;;;;;;10.77;6.18;;;;;;;-2.66;68.56;99095.66;4946604;27;102954;-77
2023/12/03 01:31:48;;;;;;;10.93;5.88;;;;;;;-2.68;68.27;99089.72;4960106;28;103854;-77
2023/12/03 01:34:16;;;;;;;11.82;8.95;;;;;;;-2.57;68.76;99095.25;4959141;27;103271;-77
2023/12/03 01:36:45;;;;;;;15.20;9.60;;;;;;;-2.58;67.78;99097.88;4951472;27;102683;-76
2023/12/03 01:39:15;;;;;;;11.77;8.18;;;;;;;-2.55;68.08;99097.75;4956971;27;102681;-77
2023/12/03 01:41:43;;;;;;;11.35;7.40;;;;;;;-2.52;67.57;99108.78;4945535;27;104024;-77
2023/12/03 01:44:11;;;;;;;10.40;6.75;;;;;;;-2.62;66.99;99101.53;4939087;27;103551;-77
2023/12/03 01:46:39;;;;;;;12.75;7.45;;;;;;;-2.57;68.10;99095.25;5026222;27;102670;-77
2023/12/03 01:49:06;;;;;;;13.60;10.00;;;;;;;-2.49;67.94;99110.41;4960069;28;103732;-77
2023/12/03 01:51:34;;;;;;;11.10;8.48;;;;;;;-2.47;67.98;99110.34;4959309;27;103255;-77
2023/12/03 01:54:03;;;;;;;11.82;7.28;;;;;;;-2.54;67.92;99109.78;4957210;28;103205;-77
2023/12/03 01:56:32;;;;;;;11.60;7.82;;;;;;;-2.55;67.88;99114.16;5025270;27;102629;-77
2023/12/03 01:58:59;;;;;;;15.00;8.05;;;;;;;-2.50;68.28;99117.34;4957799;28;103564;-77
2023/12/03 02:01:28;;;;;;;11.93;7.57;;;;;;;-2.42;67.99;99123.94;4956848;28;103243;-78
2023/12/03 02:03:56;;;;;;;14.75;10.30;;;;;;;-2.45;68.11;99127.50;4944569;27;103322;-77
2023/12/03 02:06:24;;;;;;;14.38;10.23;;;;;;;-2.42;68.44;99123.94;4957869;27;102624;-77
2023/12/03 02:08:53;;;;;;;14.45;7.68;;;;;;;-2.53;68.84;99122.69;4954623;27;102592;-78
2023/12/03 02:11:22;;;;;;;14.88;10.18;;;;;;;-2.50;68.05;99130.31;4946168;28;103318;-77
2023/12/03 02:13:51;;;;;;;15.00;10.32;;;;;;;-2.53;68.21;99121.84;4952212;27;103222;-77
2023/12/03 02:16:19;;;;;;;12.73;8.70;;;;;;;-2.47;68.61;99123.31;4956817;27;103075;-77
2023/12/03 02:18:49;;;;;;;14.38;10.43;;;;;;;-2.51;67.86;99125.22;4959676;28;102642;-78
2023/12/03 02:21:17;;;;;;;12.32;7.53;;;;;;;-2.59;68.56;99122.16;4956615;27;104360;-77
2023/12/03 02:23:47;;;;;;;13.00;7.35;;;;;;;-2.64;68.39;99124.97;4942019;28;103263;-78
2023/12/03 02:26:17;;;;;;;16.63;7.32;;;;;;;-2.64;67.98;99124.97;4957359;28;102648;-78
2023/12/03 02:28:45;;;;;;;13.30;7.57;;;;;;;-2.75;68.77;99116.84;4942435;27;103931;-78
2023/12/03 02:31:13;;;;;;;13.40;9.68;;;;;;;-2.81;68.34;99127.53;4960074;28;104025;-78
2023/12/03 02:33:48;;;;;;;15.43;11.02;;;;;;;-2.71;68.50;99123.56;4959988;27;103347;-78
2023/12/03 02:36:16;;;;;;;14.45;10.65;;;;;;;-2.77;69.19;99118.69;4961812;28;102870;-78
2023/12/03 02:38:43;;;;;;;13.55;9.93;;;;;;;-2.62;68.43;99128.34;4947736;27;103068;-78
2023/12/03 02:41:13;;;;;;;14.77;8.15;;;;;;;-2.64;68.88;99118.94;4956995;28;104250;-78
2023/12/03 02:43:42;;;;;;;13.13;7.80;;;;;;;-2.72;67.68;99116.72;4958485;27;103235;-79
2023/12/03 02:46:10;;;;;;;14.63;8.15;;;;;;;-2.76;68.76;99128.16;4957705;28;102655;-79
2023/12/03 02:48:38;;;;;;;15.25;8.20;;;;;;;-2.90;68.38;99128.81;4956321;27;103657;-78
2023/12/03 02:51:07;;;;;;;11.15;7.28;;;;;;;-2.85;69.18;99127.66;4958578;28;104476;-77
2023/12/03 02:53:37;;;;;;;11.50;9.02;;;;;;;-2.83;68.86;99136.22;4942142;28;103046;-77
2023/12/03 02:56:06;;;;;;;11.63;9.02;;;;;;;-2.64;68.81;99137.09;4957971;28;102592;-78
2023/12/03 02:58:35;;;;;;;12.60;9.10;;;;;;;-2.67;68.89;99131.13;4970423;27;103886;-78
2023/12/03 03:01:03;;;;;;;11.73;6.95;;;;;;;-2.80;68.26;99139.56;4953525;27;102591;-78
2023/12/03 03:03:31;;;;;;;13.15;7.53;;;;;;;-2.73;69.14;99140.97;4969464;27;103219;-78
2023/12/03 03:05:59;;;;;;;12.50;7.25;;;;;;;-2.71;68.82;99137.38;4959435;28;102678;-78
2023/12/03 03:08:27;;;;;;;12.88;8.82;;;;;;;-2.73;68.56;99140.97;4947049;28;102687;-78
2023/12/03 03:10:55;;;;;;;12.75;9.15;;;;;;;-2.68;68.65;99142.41;4959180;27;103909;-78
2023/12/03 03:13:23;;;;;;;11.90;7.28;;;;;;;-2.78;69.07;99132.56;4958991;28;103396;-77
2023/12/03 03:15:53;;;;;;;11.43;6.78;;;;;;;-2.82;69.06;99137.06;4956331;28;102670;-78
2023/12/03 03:18:21;;;;;;;11.45;6.82;;;;;;;-2.87;69.86;99149.38;4959655;27;102747;-78
2023/12/03 03:20:50;;;;;;;10.95;8.07;;;;;;;-2.84;70.22;99144.91;4938480;28;104207;-77
2023/12/03 03:23:17;;;;;;;10.27;6.72;;;;;;;-2.78;70.06;99143.75;4953781;28;103257;-77
2023/12/03 03:25:45;;;;;;;11.27;6.68;;;;;;;-2.74;70.09;99145.31;4950300;27;102832;-77
2023/12/03 03:28:15;;;;;;;12.57;8.40;;;;;;;-2.62;70.00;99150.81;4958141;28;104515;-78
2023/12/03 03:30:43;;;;;;;15.48;9.60;;;;;;;-2.58;69.60;99148.03;4955707;28;102904;-78
2023/12/03 03:33:12;;;;;;;14.32;8.43;;;;;;;-2.73;69.55;99143.56;4943076;27;103008;-78
2023/12/03 03:35:40;;;;;;;14.98;8.50;;;;;;;-2.79;68.19;99143.84;4941228;28;103215;-77
2023/12/03 03:38:08;;;;;;;11.63;7.15;;;;;;;-2.89;68.81;99151.22;4958344;28;102690;-77
2023/12/03 03:40:36;;;;;;;12.40;8.75;;;;;;;-2.78;68.69;99151.53;4957764;28;103279;-78
2023/12/03 03:43:04;;;;;;;10.88;7.00;;;;;;;-2.88;69.00;99153.75;4958568;28;103327;-78
2023/12/03 03:45:32;;;;;;;12.25;8.45;;;;;;;-2.75;69.44;99160.94;4956627;28;102641;-77
2023/12/03 03:48:00;;;;;;;11.25;7.55;;;;;;;-2.68;69.13;99162.34;4947487;27;102777;-78
2023/12/03 03:50:29;;;;;;;12.85;7.85;;;;;;;-2.80;68.45;99166.34;4948744;27;103481;-78
2023/12/03 03:52:59;;;;;;;12.00;6.72;;;;;;;-2.78;69.00;99161.09;4941156;28;104163;-77
2023/12/03 03:55:27;;;;;;;11.10;8.02;;;;;;;-2.72;69.17;99160.81;4942457;27;102679;-78
2023/12/03 03:57:55;;;;;;;12.25;9.30;;;;;;;-2.66;68.57;99163.09;4956590;28;102652;-77
2023/12/03 04:00:23;;;;;;;11.63;6.65;;;;;;;-2.86;68.10;99162.28;4958783;28;104274;-78
2023/12/03 04:02:53;;;;;;;14.55;8.63;;;;;;;-2.90;67.93;99160.75;4955833;28;102565;-78
2023/12/03 04:05:21;;;;;;;10.32;6.57;;;;;;;-2.90;67.78;99167.69;4951782;28;102532;-78
2023/12/03 04:07:51;;;;;;;10.18;6.35;;;;;;;-2.89;67.62;99167.59;4958964;28;103276;-78
2023/12/03 04:10:19;;;;;;;9.52;7.10;;;;;;;-2.74;68.62;99166.06;4966257;27;104214;-78
2023/12/03 04:12:47;;;;;;;12.63;8.15;;;;;;;-2.71;68.52;99155.53;4940531;28;103459;-78
2023/12/03 04:15:16;;;;;;;10.20;7.68;;;;;;;-2.67;67.96;99151.06;4957081;28;102752;-77
2023/12/03 04:17:44;;;;;;;11.88;6.80;;;;;;;-2.78;67.56;99148.13;4938413;28;103959;-78
2023/12/03 04:20:12;;;;;;;9.82;5.80;;;;;;;-2.90;67.40;99154.72;4956810;27;103293;-78
2023/12/03 04:22:42;;;;;;;10.57;6.45;;;;;;;-3.04;67.82;99155.34;4941988;27;103212;-77
2023/12/03 04:25:12;;;;;;;13.23;8.77;;;;;;;-2.85;68.14;99153.59;4951893;27;102714;-78
2023/12/03 04:27:39;;;;;;;13.32;8.90;;;;;;;-2.85;67.69;99169.13;4940484;27;102678;-78
2023/12/03 04:30:08;;;;;;;10.82;6.18;;;;;;;-2.94;67.90;99168.75;4953511;28;103284;-79
2023/12/03 04:32:36;;;;;;;10.35;6.00;;;;;;;-2.95;68.32;99170.47;4955949;27;103288;-79
2023/12/03 04:35:08;;;;;;;13.32;8.98;;;;;;;-2.93;66.76;99175.63;4958426;28;102727;-79
2023/12/03 04:37:36;;;;;;;11.20;6.40;;;;;;;-2.95;66.74;99178.25;4937859;28;102969;-78
2023/12/03 04:40:07;;;;;;;11.27;8.40;;;;;;;-2.92;66.85;99178.13;4958949;28;103279;-78
2023/12/03 04:42:36;;;;;;;10.15;7.20;;;;;;;-2.96;67.94;99181.78;4939475;27;103438;-78
2023/12/03 04:45:05;;;;;;;10.32;6.30;;;;;;;-3.03;67.47;99180.38;4959139;27;102509;-78
2023/12/03 04:47:35;;;;;;;9.65;6.05;;;;;;;-3.05;67.95;99182.22;4961125;27;102869;-78
2023/12/03 04:50:03;;;;;;;11.88;7.43;;;;;;;-3.08;67.41;99178.00;4953094;27;103978;-78
2023/12/03 04:52:31;;;;;;;8.90;6.75;;;;;;;-3.01;68.35;99184.56;4957246;28;103287;-78
2023/12/03 04:54:59;;;;;;;9.52;6.93;;;;;;;-2.93;68.12;99192.00;4942408;28;102666;-78
2023/12/03 04:57:27;;;;;;;13.93;8.05;;;;;;;-2.94;67.99;99194.66;4957610;28;102735;-76
2023/12/03 04:59:56;;;;;;;10.07;6.85;;;;;;;-3.01;67.87;99194.09;4934234;27;103329;-78
2023/12/03 05:02:24;;;;;;;13.77;6.75;;;;;;;-2.97;68.29;99187.88;4954931;28;103311;-77
2023/12/03 05:04:52;;;;;;;10.98;6.63;;;;;;;-3.00;67.96;99185.41;4955178;27;104616;-78
2023/12/03 05:07:19;;;;;;;11.18;8.38;;;;;;;-3.04;68.52;99212.38;4952728;27;102913;-78
2023/12/03 05:09:47;;;;;;;11.68;8.38;;;;;;;-3.03;68.48;99195.91;4954124;27;103277;-77
2023/12/03 05:12:15;;;;;;;10.73;6.82;;;;;;;-3.16;68.37;99203.41;4963175;27;103198;-77
2023/12/03 05:14:43;;;;;;;9.13;5.78;;;;;;;-3.31;69.85;99202.34;4953008;28;102599;-77
2023/12/03 05:17:15;;;;;;;11.35;6.72;;;;;;;-3.33;69.58;99209.34;4954571;27;103605;-78
2023/12/03 05:19:43;;;;;;;11.18;8.15;;;;;;;-3.33;69.55;99202.41;4952155;27;103937;-78
2023/12/03 05:22:12;;;;;;;11.93;6.72;;;;;;;-3.39;69.79;99200.09;4957893;27;103375;-76
2023/12/03 05:24:40;;;;;;;12.02;8.90;;;;;;;-3.34;69.70;99207.66;4957824;27;102734;-78
2023/12/03 05:27:07;;;;;;;12.40;6.63;;;;;;;-3.43;70.07;99208.06;4959552;27;103610;-77
2023/12/03 05:29:35;;;;;;;12.13;6.85;;;;;;;-3.52;69.97;99207.56;4951497;27;103929;-77
2023/12/03 05:32:06;;;;;;;11.68;7.68;;;;;;;-3.59;70.66;99208.75;4936847;27;105723;-77
2023/12/03 05:34:35;;;;;;;10.20;7.03;;;;;;;-3.52;70.58;99210.16;4942313;28;102557;-78
2023/12/03 05:37:03;;;;;;;12.25;7.22;;;;;;;-3.63;70.53;99217.53;4956844;28;102744;-79
2023/12/03 05:39:31;;;;;;;11.10;6.93;;;;;;;-3.72;71.08;99207.56;4953982;28;103334;-79
2023/12/03 05:41:59;;;;;;;11.55;6.93;;;;;;;-3.77;71.03;99210.34;4942544;28;102649;-79
2023/12/03 05:44:27;;;;;;;12.50;8.30;;;;;;;-3.72;70.77;99211.00;4942888;28;103341;-79
2023/12/03 05:46:55;;;;;;;11.30;6.78;;;;;;;-3.75;71.52;99213.72;4937464;27;103317;-78
2023/12/03 05:49:23;;;;;;;13.50;7.00;;;;;;;-3.76;71.48;99217.22;4943541;27;104770;-78
2023/12/03 05:51:52;;;;;;;11.40;8.80;;;;;;;-3.75;70.76;99224.06;4970069;27;102942;-78
2023/12/03 05:54:20;;;;;;;10.30;6.57;;;;;;;-3.83;70.97;99221.78;4959232;28;103696;-78
2023/12/03 05:56:48;;;;;;;11.50;6.82;;;;;;;-3.87;71.18;99217.66;4948759;28;102812;-78
2023/12/03 05:59:16;;;;;;;13.75;7.28;;;;;;;-3.93;71.12;99228.28;4968130;27;104128;-79
2023/12/03 06:01:44;;;;;;;12.05;6.50;;;;;;;-4.07;71.72;99228.00;4947196;27;104440;-78
2023/12/03 06:04:12;;;;;;;13.43;7.47;;;;;;;-4.23;71.87;99228.63;4939742;27;103054;-78
2023/12/03 06:06:40;;;;;;;12.75;7.43;;;;;;;-4.24;72.55;99220.94;4957504;27;102675;-78
2023/12/03 06:09:09;;;;;;;12.48;7.13;;;;;;;-4.24;72.47;99218.34;4954652;28;104276;-77
2023/12/03 06:11:37;;;;;;;11.82;7.32;;;;;;;-4.26;72.67;99226.16;4956786;28;103469;-78
2023/12/03 06:14:05;;;;;;;14.40;7.97;;;;;;;-4.26;72.39;99222.72;4951589;28;102926;-78
2023/12/03 06:16:33;;;;;;;13.57;7.90;;;;;;;-4.30;72.22;99222.00;4962985;27;104550;-78
2023/12/03 06:19:01;;;;;;;12.90;7.95;;;;;;;-4.27;72.74;99221.03;4943147;28;104323;-78
2023/12/03 06:21:29;;;;;;;10.57;6.07;;;;;;;-4.23;72.78;99218.28;4965607;28;103384;-76
2023/12/03 06:23:57;;;;;;;13.20;7.47;;;;;;;-4.43;71.97;99226.00;5029696;27;102797;-77
2023/12/03 06:26:26;;;;;;;13.82;8.23;;;;;;;-4.46;72.86;99231.28;4962977;27;102662;-76
2023/12/03 06:28:54;;;;;;;14.20;8.50;;;;;;;-4.41;72.98;99231.94;4958711;27;103663;-75
2023/12/03 06:31:22;;;;;;;12.88;8.05;;;;;;;-4.40;73.05;99236.19;4956571;27;103238;-75
2023/12/03 06:33:50;;;;;;;12.07;7.18;;;;;;;-4.38;73.04;99244.75;4966487;27;102883;-74
2023/12/03 06:36:19;;;;;;;13.45;7.75;;;;;;;-4.37;72.84;99249.03;4945577;27;102707;-74
2023/12/03 06:38:47;;;;;;;12.68;6.82;;;;;;;-4.37;72.94;99249.03;4958770;27;104127;-74
2023/12/03 06:41:15;;;;;;;12.52;7.15;;;;;;;-4.34;73.15;99247.16;4967806;27;103323;-73
2023/12/03 06:43:44;;;;;;;12.88;7.00;;;;;;;-4.27;73.19;99252.94;4958597;28;102603;-75
2023/12/03 06:46:12;;;;;;;13.93;8.20;;;;;;;-4.29;72.19;99246.97;4951830;28;102613;-76
2023/12/03 06:48:41;;;;;;;14.27;8.30;;;;;;;-4.39;72.49;99248.22;4939089;27;103517;-75
2023/12/03 06:51:09;;;;;;;13.88;8.68;;;;;;;-4.35;73.19;99254.97;4944372;28;103915;-74
2023/12/03 06:53:38;;;;;;;12.55;7.30;;;;;;;-4.37;72.45;99249.84;4956241;28;102639;-75
2023/12/03 06:56:09;;;;;;;11.30;6.93;;;;;;;-4.46;72.47;99252.81;4972639;27;104445;-74
2023/12/03 06:58:38;;;;;;;11.57;8.15;;;;;;;-4.44;73.14;99256.19;4950865;27;103400;-75
2023/12/03 07:01:09;;;;;;;13.98;7.47;;;;;;;-4.42;73.16;99256.94;4953109;28;103356;-74
2023/12/03 07:03:37;;;;;;;11.60;6.82;;;;;;;-4.38;73.41;99262.84;4944059;28;103437;-76
2023/12/03 07:06:05;;;;;;;11.45;6.40;;;;;;;-4.38;72.96;99258.50;4952101;27;102779;-75
2023/12/03 07:08:33;;;;;;;15.05;8.10;;;;;;;-4.38;72.37;99266.28;4956867;28;103966;-75
2023/12/03 07:11:01;;;;;;;13.95;7.00;;;;;;;-4.38;72.68;99260.28;4946042;28;102637;-75
2023/12/03 07:13:29;;;;;;;12.43;7.70;;;;;;;-4.35;72.72;99260.13;4938715;28;102656;-75
2023/12/03 07:15:57;;;;;;;12.00;7.13;;;;;;;-4.35;72.60;99270.47;4958321;27;102731;-75
2023/12/03 07:18:26;;;;;;;10.95;6.07;;;;;;;-4.31;72.90;99276.38;4940135;28;104159;-76
2023/12/03 07:20:55;;;;;;;14.55;7.55;;;;;;;-4.24;72.91;99273.50;4945035;27;104286;-76
2023/12/03 07:23:23;;;;;;;12.18;6.80;;;;;;;-4.18;72.86;99273.25;4961956;27;102690;-81
2023/12/03 07:25:51;;;;;;;13.20;7.22;;;;;;;-4.08;72.96;99278.06;4968175;28;102489;-74
2023/12/03 07:28:19;;;;;;;13.38;7.18;;;;;;;-4.01;72.78;99279.50;4950733;27;103247;-75
2023/12/03 07:30:47;;;;;;;13.23;6.97;;;;;;;-4.00;72.07;99279.44;4964142;27;103348;-73
2023/12/03 07:33:15;;;;;;;14.25;7.65;;;;;;;-3.96;72.21;99277.56;4946857;27;102639;-72
2023/12/03 07:35:46;;;;;;;14.18;7.90;;;;;;;-3.97;71.53;99282.81;4961518;27;103815;-76
2023/12/03 07:38:14;;;;;;;10.80;6.78;;;;;;;-3.99;72.04;99277.69;4958469;28;103972;-76
2023/12/03 07:40:42;;;;;;;13.15;7.35;;;;;;;-3.90;72.14;99282.50;4959312;27;103258;-76
2023/12/03 07:43:10;;;;;;;15.80;8.55;;;;;;;-3.76;72.66;99286.25;4954614;28;102608;-71
2023/12/03 07:45:40;;;;;;;13.02;8.65;;;;;;;-3.69;71.53;99295.47;4944821;27;102774;-72
2023/12/03 07:48:09;;;;;;;14.60;8.93;;;;;;;-3.55;71.02;99303.50;4971270;27;103206;-72
2023/12/03 07:50:37;;;;;;;11.90;7.50;;;;;;;-3.48;71.45;99298.91;4951997;27;103284;-71
2023/12/03 07:53:10;;;;;;;13.20;7.13;;;;;;;-3.18;71.20;99304.53;4964993;27;103387;-71
2023/12/03 07:55:38;;;;;;;12.35;6.90;;;;;;;-3.24;70.34;99296.19;4955583;28;102640;-72
2023/12/03 07:58:06;;;;;;;14.68;8.30;;;;;;;-3.00;69.95;99304.63;4947077;27;104619;-71
2023/12/03 08:00:37;;;;;;;14.77;8.40;;;;;;;-2.76;69.50;99301.88;4939031;27;103217;-71
2023/12/03 08:03:05;;;;;;;13.10;8.20;;;;;;;-2.57;69.08;99302.72;4938734;27;102970;-71
2023/12/03 08:05:33;;;;;;;14.75;10.98;;;;;;;-2.51;67.34;99301.59;4957632;28;103592;-71
2023/12/03 08:08:01;;;;;;;14.50;8.68;;;;;;;-2.38;68.78;99310.47;4952997;28;103340;-71
2023/12/03 08:10:30;;;;;;;15.27;8.13;;;;;;;-2.29;68.31;99306.63;4939255;27;104270;-71
2023/12/03 08:12:58;;;;;;;20.00;9.13;;;;;;;-2.07;68.42;99305.59;4953952;28;102619;-71
2023/12/03 08:15:26;;;;;;;14.15;8.27;;;;;;;-1.91;66.89;99303.97;4933405;27;102909;-71
2023/12/03 08:17:56;;;;;;;13.35;8.07;;;;;;;-1.76;67.60;99306.72;4959802;27;103992;-71
2023/12/03 08:20:24;;;;;;;12.82;7.00;;;;;;;-1.70;66.66;99304.66;5031121;27;103216;-71
2023/12/03 08:22:53;;;;;;;11.93;9.10;;;;;;;-1.50;66.77;99302.84;4941237;28;102798;-71
2023/12/03 08:25:21;;;;;;;12.60;8.38;;;;;;;-1.38;66.01;99310.00;4944050;28;103888;-71
2023/12/03 08:27:50;;;;;;;11.45;9.05;;;;;;;-1.24;65.81;99311.91;4952363;28;103356;-71
2023/12/03 08:30:19;;;;;;;14.27;7.30;;;;;;;-1.09;65.72;99312.88;4960913;27;102952;-71
2023/12/03 08:32:46;;;;;;;13.98;8.20;;;;;;;-1.08;65.49;99311.13;4953949;28;102546;-71
2023/12/03 08:35:14;;;;;;;14.38;9.65;;;;;;;-0.99;65.42;99315.84;4974497;27;104449;-71
2023/12/03 08:37:42;;;;;;;15.38;10.98;;;;;;;-0.99;64.16;99315.84;4954208;28;103275;-71
2023/12/03 08:40:11;;;;;;;14.00;9.85;;;;;;;-1.15;66.39;99309.75;4958246;27;103225;-72
2023/12/03 08:42:44;;;;;;;16.23;11.35;;;;;;;-1.04;66.00;99310.06;4953669;28;102555;-71
2023/12/03 08:45:14;;;;;;;16.15;11.73;;;;;;;-1.04;65.28;99307.47;4944041;27;104106;-72
2023/12/03 08:47:42;;;;;;;19.15;13.05;;;;;;;-1.05;66.13;99313.56;4956273;28;103240;-72
2023/12/03 08:50:10;;;;;;;14.18;10.38;;;;;;;-0.91;65.13;99316.28;4949618;27;103414;-73
2023/12/03 08:52:38;;;;;;;16.52;12.68;;;;;;;-0.85;64.75;99317.75;4959453;28;102774;-71
2023/12/03 08:55:08;;;;;;;15.93;12.02;;;;;;;-0.84;65.25;99317.66;4959969;28;102861;-71
2023/12/03 08:57:39;;;;;;;18.05;12.13;;;;;;;-0.82;65.50;99316.75;4955600;28;103311;-72
2023/12/03 09:00:10;;;;;;;18.75;12.05;;;;;;;-0.68;65.02;99312.50;4942122;27;104076;-71
2023/12/03 09:02:39;;;;;;;15.20;10.65;;;;;;;-0.66;65.57;99320.22;4941411;27;102886;-71
2023/12/03 09:05:07;;;;;;;16.80;10.95;;;;;;;-0.44;65.12;99319.06;4945920;28;104058;-71
2023/12/03 09:07:35;;;;;;;17.13;11.52;;;;;;;-0.56;64.71;99331.81;4954847;28;103601;-71
2023/12/03 09:10:04;;;;;;;14.25;10.98;;;;;;;-0.36;64.60;99327.28;4954725;28;103422;-71
2023/12/03 09:12:32;;;;;;;15.20;10.38;;;;;;;-0.23;64.09;99320.50;4964530;27;102870;-71
2023/12/03 09:15:03;;;;;;;17.33;12.63;;;;;;;-0.29;64.18;99326.03;4945744;27;103161;-71
2023/12/03 09:17:32;;;;;;;16.25;12.10;;;;;;;-0.37;64.20;99320.41;4945397;28;103896;-71
2023/12/03 09:20:01;;;;;;;15.57;11.73;;;;;;;-0.53;64.71;99323.81;4958516;27;103194;-71
2023/12/03 09:22:29;;;;;;;16.38;12.30;;;;;;;-0.41;64.62;99322.31;4955477;27;102919;-71
2023/12/03 09:24:57;;;;;;;17.77;12.77;;;;;;;-0.52;64.93;99312.50;4954631;28;102854;-71
2023/12/03 09:27:28;;;;;;;18.45;12.65;;;;;;;-0.56;64.60;99308.38;4955959;28;103149;-71
2023/12/03 09:30:01;;;;;;;15.52;12.23;;;;;;;-0.58;64.64;99299.81;4953212;27;103297;-71
2023/12/03 09:32:30;;;;;;;17.42;12.43;;;;;;;-0.54;64.67;99306.56;4961857;27;102679;-71
2023/12/03 09:34:59;;;;;;;15.82;11.40;;;;;;;-0.37;64.37;99303.03;4946515;27;102792;-71
2023/12/03 09:37:30;;;;;;;15.80;11.38;;;;;;;-0.51;64.34;99301.19;4955737;27;103270;-71
2023/12/03 09:40:03;;;;;;;15.25;11.15;;;;;;;-0.30;63.86;99298.34;4957980;28;103251;-71
2023/12/03 09:42:40;;;;;;;16.02;11.38;;;;;;;-0.26;63.75;99297.25;4942491;28;102682;-71
2023/12/03 09:45:13;;;;;;;19.13;12.90;;;;;;;-0.19;63.56;99298.56;4951468;27;102711;-70
2023/12/03 09:47:48;;;;;;;14.13;9.75;;;;;;;-0.07;63.42;99304.84;4953544;28;103967;-70
2023/12/03 09:50:22;;;;;;;18.77;13.07;;;;;;;-0.02;62.32;99308.03;4940029;28;103217;-70
2023/12/03 09:52:56;;;;;;;15.98;11.00;;;;;;;-0.08;63.17;99295.38;4939596;28;102709;-71
2023/12/03 09:55:29;;;;;;;17.55;12.32;;;;;;;-0.08;63.29;99307.53;4955436;28;102658;-70
2023/12/03 09:58:03;;;;;;;17.25;12.50;;;;;;;-0.34;62.90;99296.84;4951895;27;103924;-73
2023/12/03 10:00:39;;;;;;;14.55;10.32;;;;;;;-0.29;63.95;99304.38;4996850;27;103348;-71
2023/12/03 10:03:16;;;;;;;17.38;12.18;;;;;;;-0.12;63.83;99311.25;4960361;27;103020;-71
2023/12/03 10:05:49;;;;;;;15.20;10.82;;;;;;;-0.06;63.37;99300.50;4943591;27;103880;-70
2023/12/03 10:08:24;;;;;;;17.85;13.38;;;;;;;-0.20;63.47;99304.72;4947221;28;103253;-71
2023/12/03 10:10:59;;;;;;;17.70;13.00;;;;;;;-0.27;63.86;99302.53;4940617;27;103764;-71
2023/12/03 10:13:28;;;;;;;16.00;11.63;;;;;;;-0.23;63.85;99298.84;4944531;27;102743;-71
2023/12/03 10:15:56;;;;;;;16.25;11.93;;;;;;;0.00;63.15;99305.38;4939893;28;102733;-72
2023/12/03 10:18:25;;;;;;;18.27;12.55;;;;;;;0.15;62.64;99309.69;4956989;28;103879;-72
2023/12/03 10:21:06;;;;;;;17.73;12.57;;;;;;;0.11;62.51;99297.78;4964232;28;103635;-72
2023/12/03 10:23:37;;;;;;;17.77;12.50;;;;;;;0.04;63.31;99295.59;4952171;27;103853;-72
2023/12/03 10:26:13;;;;;;;16.15;11.43;;;;;;;0.18;63.68;99294.84;4951659;28;106087;-72
2023/12/03 10:28:41;;;;;;;15.32;10.90;;;;;;;0.28;62.83;99290.78;4954378;28;103382;-71
2023/12/03 10:31:12;;;;;;;17.35;11.88;;;;;;;0.42;63.22;99287.34;4947938;27;103337;-71
2023/12/03 10:33:43;;;;;;;;;;;;;;;0.04;63.96;99283.44;4954900;28;102639;-71
2023/12/03 10:36:12;;;;;;;17.65;11.75;;;;;;;0.41;62.58;99296.13;4957076;27;103158;-71
2023/12/03 10:39:22;;;;;;;14.88;10.98;;;;;;;0.47;61.95;99288.78;4956302;27;103073;-72
2023/12/03 10:41:51;;;;;;;17.50;12.15;;;;;;;0.56;62.46;99291.78;4958764;27;103296;-72
2023/12/03 10:44:21;;;;;;;15.60;10.77;;;;;;;0.49;61.88;99286.91;4956262;27;102912;-72
2023/12/03 10:46:49;;;;;;;17.50;12.13;;;;;;;0.59;61.76;99286.38;4953657;28;102774;-71
2023/12/03 10:49:17;;;;;;;21.23;12.10;;;;;;;0.83;61.45;99277.09;4943115;27;104317;-77
2023/12/03 10:51:46;;;;;;;17.63;12.80;;;;;;;0.36;61.64;99278.13;4954006;28;102968;-77
2023/12/03 10:54:24;;;;;;;14.20;10.65;;;;;;;0.92;61.09;99272.28;4949005;27;102649;-80
2023/12/03 10:56:55;;;;;;;16.27;11.95;;;;;;;0.97;61.31;99264.97;4958127;28;102882;-77
2023/12/03 10:59:32;;;;;;;14.80;10.50;;;;;;;1.05;61.95;99260.16;4991203;27;103507;-76
2023/12/03 11:02:11;;;;;;;18.33;12.10;;;;;;;0.81;59.55;99260.72;4961858;27;103364;-75
2023/12/03 11:04:48;;;;;;;13.07;9.23;;;;;;;1.35;60.76;99260.97;4950551;27;102907;-71
2023/12/03 11:07:20;;;;;;;28.30;11.75;;;;;;;1.76;60.35;99268.78;4949997;27;103032;-71
2023/12/03 11:09:50;;;;;;;17.90;12.07;;;;;;;1.67;59.00;99265.94;4965592;27;104212;-71
2023/12/03 11:12:22;;;;;;;17.65;11.52;;;;;;;1.70;59.93;99263.94;4957989;27;102650;-71
2023/12/03 11:14:51;;;;;;;20.27;11.88;;;;;;;1.78;58.87;99266.06;4960213;27;103129;-71
2023/12/03 11:17:30;;;;;;;16.92;11.88;;;;;;;1.51;59.50;99271.28;4955543;27;102660;-71
2023/12/03 11:20:08;;;;;;;15.70;10.98;;;;;;;2.01;59.07;99272.44;4963523;28;103231;-71
2023/12/03 11:22:49;;;;;;;14.38;10.50;;;;;;;2.14;58.81;99267.25;4958074;27;103201;-72
2023/12/03 11:25:24;;;;;;;17.10;11.32;;;;;;;2.04;55.86;99267.00;4934203;28;102763;-73